sensor_id;sensor_type;location;lat;lon;timestamp;P1;durP1;ratioP1;P2;durP2;ratioP2
64188;SDS011;50493;50.970;10.082;2023-04-25T00:02:25;5.93;;;4.13;;
64188;SDS011;50493;50.970;10.082;2023-04-25T00:04:50;8.13;;;4.20;;
64188;SDS011;50493;50.970;10.082;2023-04-25T00:07:16;7.63;;;4.03;;
64188;SDS011;50493;50.970;10.082;2023-04-25T00:09:42;7.07;;;4.28;;
64188;SDS011;50493;50.970;10.082;2023-04-25T00:12:07;8.20;;;4.28;;
64188;SDS011;50493;50.970;10.082;2023-04-25T00:14:33;6.93;;;4.00;;
64188;SDS011;50493;50.970;10.082;2023-04-25T00:16:59;7.10;;;4.13;;
64188;SDS011;50493;50.970;10.082;2023-04-25T00:19:26;6.07;;;3.90;;
64188;SDS011;50493;50.970;10.082;2023-04-25T00:21:53;7.43;;;4.20;;
64188;SDS011;50493;50.970;10.082;2023-04-25T00:24:19;7.80;;;4.00;;
64188;SDS011;50493;50.970;10.082;2023-04-25T00:26:44;6.93;;;4.18;;
64188;SDS011;50493;50.970;10.082;2023-04-25T00:29:10;6.93;;;3.83;;
64188;SDS011;50493;50.970;10.082;2023-04-25T00:31:35;7.18;;;4.28;;
64188;SDS011;50493;50.970;10.082;2023-04-25T00:34:01;6.13;;;3.97;;
64188;SDS011;50493;50.970;10.082;2023-04-25T00:36:27;6.70;;;4.20;;
64188;SDS011;50493;50.970;10.082;2023-04-25T00:38:53;6.80;;;3.80;;
64188;SDS011;50493;50.970;10.082;2023-04-25T00:41:19;6.28;;;3.75;;
64188;SDS011;50493;50.970;10.082;2023-04-25T00:43:45;7.40;;;4.15;;
64188;SDS011;50493;50.970;10.082;2023-04-25T00:46:12;6.25;;;3.70;;
64188;SDS011;50493;50.970;10.082;2023-04-25T00:48:38;5.32;;;3.90;;
64188;SDS011;50493;50.970;10.082;2023-04-25T00:51:03;6.03;;;3.70;;
64188;SDS011;50493;50.970;10.082;2023-04-25T00:53:30;6.65;;;3.85;;
64188;SDS011;50493;50.970;10.082;2023-04-25T00:55:57;6.28;;;3.70;;
64188;SDS011;50493;50.970;10.082;2023-04-25T00:58:23;5.10;;;3.65;;
64188;SDS011;50493;50.970;10.082;2023-04-25T01:00:50;5.32;;;3.88;;
64188;SDS011;50493;50.970;10.082;2023-04-25T01:03:17;5.60;;;3.67;;
64188;SDS011;50493;50.970;10.082;2023-04-25T01:05:44;6.03;;;3.58;;
64188;SDS011;50493;50.970;10.082;2023-04-25T01:08:10;6.57;;;4.00;;
64188;SDS011;50493;50.970;10.082;2023-04-25T01:10:37;5.85;;;3.67;;
64188;SDS011;50493;50.970;10.082;2023-04-25T01:13:02;7.30;;;3.88;;
64188;SDS011;50493;50.970;10.082;2023-04-25T01:15:28;6.82;;;3.50;;
64188;SDS011;50493;50.970;10.082;2023-04-25T01:17:53;6.03;;;3.70;;
64188;SDS011;50493;50.970;10.082;2023-04-25T01:20:20;6.03;;;3.50;;
64188;SDS011;50493;50.970;10.082;2023-04-25T01:22:49;8.10;;;4.20;;
64188;SDS011;50493;50.970;10.082;2023-04-25T01:25:15;7.20;;;3.53;;
64188;SDS011;50493;50.970;10.082;2023-04-25T01:27:40;5.20;;;3.50;;
64188;SDS011;50493;50.970;10.082;2023-04-25T01:30:06;6.78;;;3.83;;
64188;SDS011;50493;50.970;10.082;2023-04-25T01:32:32;8.30;;;3.53;;
64188;SDS011;50493;50.970;10.082;2023-04-25T01:35:03;8.35;;;4.05;;
64188;SDS011;50493;50.970;10.082;2023-04-25T01:37:29;6.93;;;4.25;;
64188;SDS011;50493;50.970;10.082;2023-04-25T01:39:55;6.07;;;3.80;;
64188;SDS011;50493;50.970;10.082;2023-04-25T01:42:21;7.00;;;3.92;;
64188;SDS011;50493;50.970;10.082;2023-04-25T01:44:46;7.05;;;4.20;;
64188;SDS011;50493;50.970;10.082;2023-04-25T01:47:11;7.53;;;4.15;;
64188;SDS011;50493;50.970;10.082;2023-04-25T01:49:37;6.85;;;3.63;;
64188;SDS011;50493;50.970;10.082;2023-04-25T01:52:02;6.78;;;4.30;;
64188;SDS011;50493;50.970;10.082;2023-04-25T01:54:28;8.00;;;4.90;;
64188;SDS011;50493;50.970;10.082;2023-04-25T01:56:56;7.82;;;4.07;;
64188;SDS011;50493;50.970;10.082;2023-04-25T01:59:22;6.65;;;4.13;;
64188;SDS011;50493;50.970;10.082;2023-04-25T02:01:47;11.52;;;6.63;;
64188;SDS011;50493;50.970;10.082;2023-04-25T02:04:13;8.50;;;4.40;;
64188;SDS011;50493;50.970;10.082;2023-04-25T02:06:38;7.93;;;4.45;;
64188;SDS011;50493;50.970;10.082;2023-04-25T02:09:03;8.55;;;5.10;;
64188;SDS011;50493;50.970;10.082;2023-04-25T02:11:28;8.55;;;4.22;;
64188;SDS011;50493;50.970;10.082;2023-04-25T02:13:55;6.63;;;4.20;;
64188;SDS011;50493;50.970;10.082;2023-04-25T02:16:20;8.55;;;3.70;;
64188;SDS011;50493;50.970;10.082;2023-04-25T02:18:46;6.47;;;3.85;;
64188;SDS011;50493;50.970;10.082;2023-04-25T02:21:11;8.40;;;4.05;;
64188;SDS011;50493;50.970;10.082;2023-04-25T02:23:37;10.25;;;4.47;;
64188;SDS011;50493;50.970;10.082;2023-04-25T02:26:02;8.48;;;4.60;;
64188;SDS011;50493;50.970;10.082;2023-04-25T02:28:28;9.07;;;4.65;;
64188;SDS011;50493;50.970;10.082;2023-04-25T02:30:54;7.28;;;4.80;;
64188;SDS011;50493;50.970;10.082;2023-04-25T02:33:20;8.88;;;4.30;;
64188;SDS011;50493;50.970;10.082;2023-04-25T02:35:46;9.00;;;4.75;;
64188;SDS011;50493;50.970;10.082;2023-04-25T02:38:11;7.18;;;4.25;;
64188;SDS011;50493;50.970;10.082;2023-04-25T02:40:36;8.50;;;4.38;;
64188;SDS011;50493;50.970;10.082;2023-04-25T02:43:02;9.05;;;4.32;;
64188;SDS011;50493;50.970;10.082;2023-04-25T02:45:27;7.30;;;4.32;;
64188;SDS011;50493;50.970;10.082;2023-04-25T02:47:54;7.65;;;4.45;;
64188;SDS011;50493;50.970;10.082;2023-04-25T02:50:19;6.38;;;4.03;;
64188;SDS011;50493;50.970;10.082;2023-04-25T02:52:45;8.45;;;4.47;;
64188;SDS011;50493;50.970;10.082;2023-04-25T02:55:10;7.25;;;4.20;;
64188;SDS011;50493;50.970;10.082;2023-04-25T02:57:37;8.50;;;4.25;;
64188;SDS011;50493;50.970;10.082;2023-04-25T03:00:02;8.60;;;4.40;;
64188;SDS011;50493;50.970;10.082;2023-04-25T03:02:30;9.02;;;4.32;;
64188;SDS011;50493;50.970;10.082;2023-04-25T03:04:56;8.10;;;4.15;;
64188;SDS011;50493;50.970;10.082;2023-04-25T03:07:22;9.82;;;4.57;;
64188;SDS011;50493;50.970;10.082;2023-04-25T03:09:47;7.00;;;4.25;;
64188;SDS011;50493;50.970;10.082;2023-04-25T03:12:12;8.52;;;4.20;;
64188;SDS011;50493;50.970;10.082;2023-04-25T03:14:38;8.13;;;4.13;;
64188;SDS011;50493;50.970;10.082;2023-04-25T03:17:03;6.95;;;4.30;;
64188;SDS011;50493;50.970;10.082;2023-04-25T03:19:28;6.50;;;4.05;;
64188;SDS011;50493;50.970;10.082;2023-04-25T03:21:55;6.78;;;4.00;;
64188;SDS011;50493;50.970;10.082;2023-04-25T03:24:21;6.32;;;3.97;;
64188;SDS011;50493;50.970;10.082;2023-04-25T03:26:46;7.72;;;4.00;;
64188;SDS011;50493;50.970;10.082;2023-04-25T03:29:12;6.50;;;3.78;;
64188;SDS011;50493;50.970;10.082;2023-04-25T03:31:37;7.30;;;3.92;;
64188;SDS011;50493;50.970;10.082;2023-04-25T03:34:03;7.55;;;4.30;;
64188;SDS011;50493;50.970;10.082;2023-04-25T03:36:28;8.55;;;4.25;;
64188;SDS011;50493;50.970;10.082;2023-04-25T03:38:55;7.35;;;4.13;;
64188;SDS011;50493;50.970;10.082;2023-04-25T03:41:20;7.25;;;4.13;;
64188;SDS011;50493;50.970;10.082;2023-04-25T03:43:45;7.80;;;4.53;;
64188;SDS011;50493;50.970;10.082;2023-04-25T03:46:11;7.65;;;3.92;;
64188;SDS011;50493;50.970;10.082;2023-04-25T03:48:36;7.60;;;4.53;;
64188;SDS011;50493;50.970;10.082;2023-04-25T03:51:01;5.93;;;3.83;;
64188;SDS011;50493;50.970;10.082;2023-04-25T03:53:27;6.93;;;3.80;;
64188;SDS011;50493;50.970;10.082;2023-04-25T03:55:54;7.18;;;4.35;;
64188;SDS011;50493;50.970;10.082;2023-04-25T03:58:19;8.82;;;4.30;;
64188;SDS011;50493;50.970;10.082;2023-04-25T04:00:45;9.32;;;4.13;;
64188;SDS011;50493;50.970;10.082;2023-04-25T04:03:10;8.30;;;4.38;;
64188;SDS011;50493;50.970;10.082;2023-04-25T04:05:36;6.13;;;4.07;;
64188;SDS011;50493;50.970;10.082;2023-04-25T04:08:02;6.38;;;4.20;;
64188;SDS011;50493;50.970;10.082;2023-04-25T04:10:27;7.45;;;4.15;;
64188;SDS011;50493;50.970;10.082;2023-04-25T04:12:54;6.75;;;3.75;;
64188;SDS011;50493;50.970;10.082;2023-04-25T04:15:19;6.95;;;4.10;;
64188;SDS011;50493;50.970;10.082;2023-04-25T04:17:45;7.28;;;4.43;;
64188;SDS011;50493;50.970;10.082;2023-04-25T04:20:11;7.10;;;4.28;;
64188;SDS011;50493;50.970;10.082;2023-04-25T04:22:37;8.02;;;4.18;;
64188;SDS011;50493;50.970;10.082;2023-04-25T04:25:02;6.15;;;3.90;;
64188;SDS011;50493;50.970;10.082;2023-04-25T04:27:29;8.13;;;3.90;;
64188;SDS011;50493;50.970;10.082;2023-04-25T04:29:56;6.90;;;3.88;;
64188;SDS011;50493;50.970;10.082;2023-04-25T04:32:22;6.65;;;3.88;;
64188;SDS011;50493;50.970;10.082;2023-04-25T04:34:48;6.18;;;3.80;;
64188;SDS011;50493;50.970;10.082;2023-04-25T04:37:14;6.53;;;4.10;;
64188;SDS011;50493;50.970;10.082;2023-04-25T04:39:39;8.25;;;3.75;;
64188;SDS011;50493;50.970;10.082;2023-04-25T04:42:05;6.88;;;4.25;;
64188;SDS011;50493;50.970;10.082;2023-04-25T04:44:31;5.85;;;3.70;;
64188;SDS011;50493;50.970;10.082;2023-04-25T04:47:01;6.68;;;4.18;;
64188;SDS011;50493;50.970;10.082;2023-04-25T04:49:28;7.10;;;4.47;;
64188;SDS011;50493;50.970;10.082;2023-04-25T04:51:53;8.20;;;4.55;;
64188;SDS011;50493;50.970;10.082;2023-04-25T04:54:19;7.45;;;4.43;;
64188;SDS011;50493;50.970;10.082;2023-04-25T04:56:45;6.50;;;3.85;;
64188;SDS011;50493;50.970;10.082;2023-04-25T04:59:10;7.05;;;3.92;;
64188;SDS011;50493;50.970;10.082;2023-04-25T05:01:36;7.93;;;4.13;;
64188;SDS011;50493;50.970;10.082;2023-04-25T05:04:02;6.65;;;4.05;;
64188;SDS011;50493;50.970;10.082;2023-04-25T05:06:28;7.82;;;4.15;;
64188;SDS011;50493;50.970;10.082;2023-04-25T05:08:54;9.93;;;5.30;;
64188;SDS011;50493;50.970;10.082;2023-04-25T05:11:20;8.68;;;4.55;;
64188;SDS011;50493;50.970;10.082;2023-04-25T05:13:45;8.93;;;5.40;;
64188;SDS011;50493;50.970;10.082;2023-04-25T05:16:11;8.55;;;4.78;;
64188;SDS011;50493;50.970;10.082;2023-04-25T05:18:36;8.35;;;4.88;;
64188;SDS011;50493;50.970;10.082;2023-04-25T05:21:03;6.65;;;4.25;;
64188;SDS011;50493;50.970;10.082;2023-04-25T05:23:29;10.02;;;5.45;;
64188;SDS011;50493;50.970;10.082;2023-04-25T05:25:56;10.75;;;5.72;;
64188;SDS011;50493;50.970;10.082;2023-04-25T05:28:21;9.02;;;5.22;;
64188;SDS011;50493;50.970;10.082;2023-04-25T05:30:47;10.13;;;5.85;;
64188;SDS011;50493;50.970;10.082;2023-04-25T05:33:12;10.23;;;5.30;;
64188;SDS011;50493;50.970;10.082;2023-04-25T05:35:37;9.02;;;5.05;;
64188;SDS011;50493;50.970;10.082;2023-04-25T05:38:04;8.23;;;4.60;;
64188;SDS011;50493;50.970;10.082;2023-04-25T05:40:29;10.15;;;4.85;;
64188;SDS011;50493;50.970;10.082;2023-04-25T05:42:55;9.07;;;5.07;;
64188;SDS011;50493;50.970;10.082;2023-04-25T05:45:20;14.68;;;5.47;;
64188;SDS011;50493;50.970;10.082;2023-04-25T05:47:46;11.60;;;5.78;;
64188;SDS011;50493;50.970;10.082;2023-04-25T05:50:11;25.58;;;12.80;;
64188;SDS011;50493;50.970;10.082;2023-04-25T05:52:36;10.27;;;5.90;;
64188;SDS011;50493;50.970;10.082;2023-04-25T05:55:03;11.77;;;6.13;;
64188;SDS011;50493;50.970;10.082;2023-04-25T05:57:29;13.13;;;6.18;;
64188;SDS011;50493;50.970;10.082;2023-04-25T05:59:54;12.07;;;5.93;;
64188;SDS011;50493;50.970;10.082;2023-04-25T06:02:20;13.75;;;6.03;;
64188;SDS011;50493;50.970;10.082;2023-04-25T06:04:46;10.02;;;5.47;;
64188;SDS011;50493;50.970;10.082;2023-04-25T06:07:11;10.07;;;5.60;;
64188;SDS011;50493;50.970;10.082;2023-04-25T06:09:37;13.23;;;5.80;;
64188;SDS011;50493;50.970;10.082;2023-04-25T06:12:05;7.85;;;4.40;;
64188;SDS011;50493;50.970;10.082;2023-04-25T06:14:31;11.65;;;5.50;;
64188;SDS011;50493;50.970;10.082;2023-04-25T06:16:56;11.57;;;4.95;;
64188;SDS011;50493;50.970;10.082;2023-04-25T06:19:22;10.18;;;5.50;;
64188;SDS011;50493;50.970;10.082;2023-04-25T06:21:47;8.30;;;4.93;;
64188;SDS011;50493;50.970;10.082;2023-04-25T06:24:13;9.70;;;4.10;;
64188;SDS011;50493;50.970;10.082;2023-04-25T06:26:38;7.93;;;4.55;;
64188;SDS011;50493;50.970;10.082;2023-04-25T06:29:05;8.95;;;4.43;;
64188;SDS011;50493;50.970;10.082;2023-04-25T06:31:30;8.20;;;4.18;;
64188;SDS011;50493;50.970;10.082;2023-04-25T06:33:57;9.90;;;4.43;;
64188;SDS011;50493;50.970;10.082;2023-04-25T06:36:23;9.00;;;4.43;;
64188;SDS011;50493;50.970;10.082;2023-04-25T06:38:50;7.80;;;4.38;;
64188;SDS011;50493;50.970;10.082;2023-04-25T06:41:15;6.88;;;3.80;;
64188;SDS011;50493;50.970;10.082;2023-04-25T06:43:40;8.02;;;4.00;;
64188;SDS011;50493;50.970;10.082;2023-04-25T06:46:07;7.53;;;4.07;;
64188;SDS011;50493;50.970;10.082;2023-04-25T06:48:32;8.25;;;4.15;;
64188;SDS011;50493;50.970;10.082;2023-04-25T06:50:58;6.30;;;3.72;;
64188;SDS011;50493;50.970;10.082;2023-04-25T06:53:23;8.60;;;4.20;;
64188;SDS011;50493;50.970;10.082;2023-04-25T06:55:48;7.70;;;4.03;;
64188;SDS011;50493;50.970;10.082;2023-04-25T06:58:14;7.72;;;3.83;;
64188;SDS011;50493;50.970;10.082;2023-04-25T07:00:39;6.30;;;3.58;;
64188;SDS011;50493;50.970;10.082;2023-04-25T07:03:06;6.68;;;3.90;;
64188;SDS011;50493;50.970;10.082;2023-04-25T07:05:31;9.23;;;4.18;;
64188;SDS011;50493;50.970;10.082;2023-04-25T07:07:56;6.95;;;3.53;;
64188;SDS011;50493;50.970;10.082;2023-04-25T07:10:22;7.22;;;3.70;;
64188;SDS011;50493;50.970;10.082;2023-04-25T07:12:47;6.90;;;3.80;;
64188;SDS011;50493;50.970;10.082;2023-04-25T07:15:13;9.50;;;4.03;;
64188;SDS011;50493;50.970;10.082;2023-04-25T07:17:38;8.95;;;3.70;;
64188;SDS011;50493;50.970;10.082;2023-04-25T07:20:05;7.93;;;4.10;;
64188;SDS011;50493;50.970;10.082;2023-04-25T07:22:33;7.20;;;3.90;;
64188;SDS011;50493;50.970;10.082;2023-04-25T07:24:59;8.40;;;4.15;;
64188;SDS011;50493;50.970;10.082;2023-04-25T07:27:25;6.20;;;3.88;;
64188;SDS011;50493;50.970;10.082;2023-04-25T07:29:50;8.32;;;4.10;;
64188;SDS011;50493;50.970;10.082;2023-04-25T07:32:15;6.60;;;3.70;;
64188;SDS011;50493;50.970;10.082;2023-04-25T07:34:41;7.55;;;3.90;;
64188;SDS011;50493;50.970;10.082;2023-04-25T07:37:07;8.10;;;4.03;;
64188;SDS011;50493;50.970;10.082;2023-04-25T07:39:33;6.80;;;3.40;;
64188;SDS011;50493;50.970;10.082;2023-04-25T07:41:58;7.90;;;3.42;;
64188;SDS011;50493;50.970;10.082;2023-04-25T07:44:25;6.38;;;3.40;;
64188;SDS011;50493;50.970;10.082;2023-04-25T07:46:50;6.07;;;3.13;;
64188;SDS011;50493;50.970;10.082;2023-04-25T07:49:16;6.85;;;3.30;;
64188;SDS011;50493;50.970;10.082;2023-04-25T07:51:41;7.88;;;3.50;;
64188;SDS011;50493;50.970;10.082;2023-04-25T07:54:09;6.22;;;3.60;;
64188;SDS011;50493;50.970;10.082;2023-04-25T07:56:36;6.13;;;3.75;;
64188;SDS011;50493;50.970;10.082;2023-04-25T07:59:01;6.63;;;3.30;;
64188;SDS011;50493;50.970;10.082;2023-04-25T08:01:26;7.95;;;3.40;;
64188;SDS011;50493;50.970;10.082;2023-04-25T08:03:52;6.43;;;3.58;;
64188;SDS011;50493;50.970;10.082;2023-04-25T08:06:17;6.75;;;3.58;;
64188;SDS011;50493;50.970;10.082;2023-04-25T08:08:42;6.63;;;3.17;;
64188;SDS011;50493;50.970;10.082;2023-04-25T08:11:09;6.28;;;3.30;;
64188;SDS011;50493;50.970;10.082;2023-04-25T08:13:35;5.95;;;3.00;;
64188;SDS011;50493;50.970;10.082;2023-04-25T08:16:00;6.35;;;3.28;;
64188;SDS011;50493;50.970;10.082;2023-04-25T08:18:26;5.53;;;2.85;;
64188;SDS011;50493;50.970;10.082;2023-04-25T08:20:51;7.53;;;3.15;;
64188;SDS011;50493;50.970;10.082;2023-04-25T08:23:16;4.95;;;2.75;;
64188;SDS011;50493;50.970;10.082;2023-04-25T08:25:42;4.88;;;2.60;;
64188;SDS011;50493;50.970;10.082;2023-04-25T08:28:08;4.70;;;2.90;;
64188;SDS011;50493;50.970;10.082;2023-04-25T08:30:34;4.72;;;3.00;;
64188;SDS011;50493;50.970;10.082;2023-04-25T08:33:00;6.25;;;2.67;;
64188;SDS011;50493;50.970;10.082;2023-04-25T08:35:25;6.15;;;2.40;;
64188;SDS011;50493;50.970;10.082;2023-04-25T08:37:50;6.90;;;2.40;;
64188;SDS011;50493;50.970;10.082;2023-04-25T08:40:16;4.93;;;2.50;;
64188;SDS011;50493;50.970;10.082;2023-04-25T08:42:41;5.97;;;2.67;;
64188;SDS011;50493;50.970;10.082;2023-04-25T08:45:09;7.10;;;2.42;;
64188;SDS011;50493;50.970;10.082;2023-04-25T08:47:35;5.82;;;2.28;;
64188;SDS011;50493;50.970;10.082;2023-04-25T08:50:03;4.43;;;2.20;;
64188;SDS011;50493;50.970;10.082;2023-04-25T08:52:32;5.40;;;2.45;;
64188;SDS011;50493;50.970;10.082;2023-04-25T08:55:01;6.28;;;2.67;;
64188;SDS011;50493;50.970;10.082;2023-04-25T08:57:28;8.02;;;2.40;;
64188;SDS011;50493;50.970;10.082;2023-04-25T08:59:55;5.00;;;2.30;;
64188;SDS011;50493;50.970;10.082;2023-04-25T09:02:23;3.70;;;2.10;;
64188;SDS011;50493;50.970;10.082;2023-04-25T09:04:50;5.43;;;2.33;;
64188;SDS011;50493;50.970;10.082;2023-04-25T09:07:15;6.15;;;2.30;;
64188;SDS011;50493;50.970;10.082;2023-04-25T09:09:43;6.47;;;2.30;;
64188;SDS011;50493;50.970;10.082;2023-04-25T09:12:08;5.40;;;2.40;;
64188;SDS011;50493;50.970;10.082;2023-04-25T09:14:34;5.88;;;2.47;;
64188;SDS011;50493;50.970;10.082;2023-04-25T09:17:01;5.88;;;2.30;;
64188;SDS011;50493;50.970;10.082;2023-04-25T09:19:30;7.40;;;2.28;;
64188;SDS011;50493;50.970;10.082;2023-04-25T09:21:57;8.25;;;2.47;;
64188;SDS011;50493;50.970;10.082;2023-04-25T09:24:33;6.13;;;2.40;;
64188;SDS011;50493;50.970;10.082;2023-04-25T09:27:01;7.63;;;2.70;;
64188;SDS011;50493;50.970;10.082;2023-04-25T09:29:28;7.65;;;2.55;;
64188;SDS011;50493;50.970;10.082;2023-04-25T09:31:57;5.25;;;2.15;;
64188;SDS011;50493;50.970;10.082;2023-04-25T09:34:39;6.60;;;2.38;;
64188;SDS011;50493;50.970;10.082;2023-04-25T09:39:32;7.38;;;2.30;;
64188;SDS011;50493;50.970;10.082;2023-04-25T09:41:58;6.68;;;2.35;;
64188;SDS011;50493;50.970;10.082;2023-04-25T09:44:24;6.28;;;2.40;;
64188;SDS011;50493;50.970;10.082;2023-04-25T09:46:49;7.40;;;2.40;;
64188;SDS011;50493;50.970;10.082;2023-04-25T09:49:19;5.65;;;2.30;;
64188;SDS011;50493;50.970;10.082;2023-04-25T09:51:54;5.50;;;2.40;;
64188;SDS011;50493;50.970;10.082;2023-04-25T09:54:20;7.18;;;2.45;;
64188;SDS011;50493;50.970;10.082;2023-04-25T09:56:46;4.40;;;2.33;;
64188;SDS011;50493;50.970;10.082;2023-04-25T09:59:14;6.85;;;2.70;;
64188;SDS011;50493;50.970;10.082;2023-04-25T10:01:40;7.25;;;2.60;;
64188;SDS011;50493;50.970;10.082;2023-04-25T10:04:08;6.50;;;2.90;;
64188;SDS011;50493;50.970;10.082;2023-04-25T10:06:35;7.65;;;2.78;;
64188;SDS011;50493;50.970;10.082;2023-04-25T10:09:04;11.45;;;3.00;;
64188;SDS011;50493;50.970;10.082;2023-04-25T10:11:32;12.10;;;3.63;;
64188;SDS011;50493;50.970;10.082;2023-04-25T10:13:58;5.85;;;2.58;;
64188;SDS011;50493;50.970;10.082;2023-04-25T10:16:25;5.20;;;2.45;;
64188;SDS011;50493;50.970;10.082;2023-04-25T10:18:50;7.10;;;2.55;;
64188;SDS011;50493;50.970;10.082;2023-04-25T10:21:16;7.75;;;3.00;;
64188;SDS011;50493;50.970;10.082;2023-04-25T10:23:42;6.45;;;2.97;;
64188;SDS011;50493;50.970;10.082;2023-04-25T10:26:11;5.97;;;2.35;;
64188;SDS011;50493;50.970;10.082;2023-04-25T10:31:22;8.20;;;2.95;;
64188;SDS011;50493;50.970;10.082;2023-04-25T10:33:48;7.63;;;2.65;;
64188;SDS011;50493;50.970;10.082;2023-04-25T10:36:15;7.13;;;2.78;;
64188;SDS011;50493;50.970;10.082;2023-04-25T10:38:43;6.80;;;2.47;;
64188;SDS011;50493;50.970;10.082;2023-04-25T10:41:09;8.23;;;2.80;;
64188;SDS011;50493;50.970;10.082;2023-04-25T10:43:37;5.03;;;2.47;;
64188;SDS011;50493;50.970;10.082;2023-04-25T10:48:48;6.40;;;2.67;;
64188;SDS011;50493;50.970;10.082;2023-04-25T10:51:18;6.93;;;2.58;;
64188;SDS011;50493;50.970;10.082;2023-04-25T10:53:45;6.93;;;2.85;;
64188;SDS011;50493;50.970;10.082;2023-04-25T10:56:12;7.70;;;2.75;;
64188;SDS011;50493;50.970;10.082;2023-04-25T10:58:42;5.85;;;2.60;;
64188;SDS011;50493;50.970;10.082;2023-04-25T11:01:08;6.78;;;2.60;;
64188;SDS011;50493;50.970;10.082;2023-04-25T11:03:37;5.15;;;2.47;;
64188;SDS011;50493;50.970;10.082;2023-04-25T11:06:05;5.90;;;3.05;;
64188;SDS011;50493;50.970;10.082;2023-04-25T11:08:37;6.72;;;2.80;;
64188;SDS011;50493;50.970;10.082;2023-04-25T11:11:14;8.13;;;2.72;;
64188;SDS011;50493;50.970;10.082;2023-04-25T11:13:39;6.82;;;2.60;;
64188;SDS011;50493;50.970;10.082;2023-04-25T11:16:06;5.97;;;2.70;;
64188;SDS011;50493;50.970;10.082;2023-04-25T11:18:32;6.82;;;3.03;;
64188;SDS011;50493;50.970;10.082;2023-04-25T11:20:59;6.20;;;2.67;;
64188;SDS011;50493;50.970;10.082;2023-04-25T11:23:24;8.63;;;3.00;;
64188;SDS011;50493;50.970;10.082;2023-04-25T11:25:51;9.90;;;3.10;;
64188;SDS011;50493;50.970;10.082;2023-04-25T11:28:21;8.75;;;3.00;;
64188;SDS011;50493;50.970;10.082;2023-04-25T11:30:48;5.55;;;2.60;;
64188;SDS011;50493;50.970;10.082;2023-04-25T11:33:15;6.97;;;2.78;;
64188;SDS011;50493;50.970;10.082;2023-04-25T11:35:40;9.27;;;2.75;;
64188;SDS011;50493;50.970;10.082;2023-04-25T11:38:05;7.97;;;2.97;;
64188;SDS011;50493;50.970;10.082;2023-04-25T11:40:31;7.07;;;2.88;;
64188;SDS011;50493;50.970;10.082;2023-04-25T11:42:56;6.43;;;2.60;;
64188;SDS011;50493;50.970;10.082;2023-04-25T11:45:26;5.97;;;2.60;;
64188;SDS011;50493;50.970;10.082;2023-04-25T11:47:54;8.75;;;2.80;;
64188;SDS011;50493;50.970;10.082;2023-04-25T11:50:19;9.05;;;3.22;;
64188;SDS011;50493;50.970;10.082;2023-04-25T11:52:45;7.05;;;2.70;;
64188;SDS011;50493;50.970;10.082;2023-04-25T11:55:13;8.27;;;2.50;;
64188;SDS011;50493;50.970;10.082;2023-04-25T11:57:39;4.88;;;2.63;;
64188;SDS011;50493;50.970;10.082;2023-04-25T12:00:09;6.38;;;2.70;;
64188;SDS011;50493;50.970;10.082;2023-04-25T12:02:39;7.88;;;2.60;;
64188;SDS011;50493;50.970;10.082;2023-04-25T12:05:06;6.55;;;2.60;;
64188;SDS011;50493;50.970;10.082;2023-04-25T12:07:33;9.63;;;3.03;;
64188;SDS011;50493;50.970;10.082;2023-04-25T12:09:58;8.63;;;2.92;;
64188;SDS011;50493;50.970;10.082;2023-04-25T12:12:26;6.82;;;2.47;;
64188;SDS011;50493;50.970;10.082;2023-04-25T12:14:52;6.22;;;2.50;;
64188;SDS011;50493;50.970;10.082;2023-04-25T12:17:17;5.63;;;2.33;;
64188;SDS011;50493;50.970;10.082;2023-04-25T12:19:46;8.38;;;2.55;;
64188;SDS011;50493;50.970;10.082;2023-04-25T12:22:19;3.55;;;2.10;;
64188;SDS011;50493;50.970;10.082;2023-04-25T12:24:46;8.02;;;2.30;;
64188;SDS011;50493;50.970;10.082;2023-04-25T12:27:13;6.18;;;2.38;;
64188;SDS011;50493;50.970;10.082;2023-04-25T12:29:49;5.93;;;2.35;;
64188;SDS011;50493;50.970;10.082;2023-04-25T12:32:16;5.43;;;2.22;;
64188;SDS011;50493;50.970;10.082;2023-04-25T12:34:42;7.85;;;2.40;;
64188;SDS011;50493;50.970;10.082;2023-04-25T12:37:09;7.53;;;2.65;;
64188;SDS011;50493;50.970;10.082;2023-04-25T12:39:34;5.25;;;2.13;;
64188;SDS011;50493;50.970;10.082;2023-04-25T12:42:00;5.25;;;2.35;;
64188;SDS011;50493;50.970;10.082;2023-04-25T12:44:25;4.93;;;2.28;;
64188;SDS011;50493;50.970;10.082;2023-04-25T12:46:51;6.43;;;2.00;;
64188;SDS011;50493;50.970;10.082;2023-04-25T12:49:17;7.68;;;2.17;;
64188;SDS011;50493;50.970;10.082;2023-04-25T12:51:42;3.83;;;1.92;;
64188;SDS011;50493;50.970;10.082;2023-04-25T12:54:09;5.55;;;2.30;;
64188;SDS011;50493;50.970;10.082;2023-04-25T12:56:35;9.63;;;2.35;;
64188;SDS011;50493;50.970;10.082;2023-04-25T12:59:01;4.10;;;1.85;;
64188;SDS011;50493;50.970;10.082;2023-04-25T13:01:27;5.65;;;2.40;;
64188;SDS011;50493;50.970;10.082;2023-04-25T13:03:53;7.22;;;2.30;;
64188;SDS011;50493;50.970;10.082;2023-04-25T13:06:19;7.47;;;2.72;;
64188;SDS011;50493;50.970;10.082;2023-04-25T13:08:45;5.00;;;1.92;;
64188;SDS011;50493;50.970;10.082;2023-04-25T13:11:11;5.05;;;2.10;;
64188;SDS011;50493;50.970;10.082;2023-04-25T13:13:37;4.72;;;1.80;;
64188;SDS011;50493;50.970;10.082;2023-04-25T13:16:04;5.63;;;2.17;;
64188;SDS011;50493;50.970;10.082;2023-04-25T13:18:30;4.72;;;1.88;;
64188;SDS011;50493;50.970;10.082;2023-04-25T13:20:56;3.38;;;1.63;;
64188;SDS011;50493;50.970;10.082;2023-04-25T13:23:22;4.32;;;1.77;;
64188;SDS011;50493;50.970;10.082;2023-04-25T13:25:48;4.15;;;2.00;;
64188;SDS011;50493;50.970;10.082;2023-04-25T13:28:14;4.05;;;1.92;;
64188;SDS011;50493;50.970;10.082;2023-04-25T13:30:41;3.65;;;1.85;;
64188;SDS011;50493;50.970;10.082;2023-04-25T13:33:06;7.60;;;2.00;;
64188;SDS011;50493;50.970;10.082;2023-04-25T13:35:32;4.50;;;1.85;;
64188;SDS011;50493;50.970;10.082;2023-04-25T13:37:58;4.28;;;1.90;;
64188;SDS011;50493;50.970;10.082;2023-04-25T13:40:24;6.20;;;2.00;;
64188;SDS011;50493;50.970;10.082;2023-04-25T13:42:50;5.88;;;2.10;;
64188;SDS011;50493;50.970;10.082;2023-04-25T13:45:17;5.05;;;1.70;;
64188;SDS011;50493;50.970;10.082;2023-04-25T13:47:43;5.65;;;1.92;;
64188;SDS011;50493;50.970;10.082;2023-04-25T13:50:08;4.93;;;1.88;;
64188;SDS011;50493;50.970;10.082;2023-04-25T13:52:34;3.70;;;1.65;;
64188;SDS011;50493;50.970;10.082;2023-04-25T13:55:00;4.13;;;1.70;;
64188;SDS011;50493;50.970;10.082;2023-04-25T13:57:28;4.43;;;1.70;;
64188;SDS011;50493;50.970;10.082;2023-04-25T13:59:53;3.63;;;1.58;;
64188;SDS011;50493;50.970;10.082;2023-04-25T14:02:20;4.18;;;1.90;;
64188;SDS011;50493;50.970;10.082;2023-04-25T14:04:45;4.70;;;1.88;;
64188;SDS011;50493;50.970;10.082;2023-04-25T14:07:10;6.63;;;1.80;;
64188;SDS011;50493;50.970;10.082;2023-04-25T14:09:36;3.95;;;1.77;;
64188;SDS011;50493;50.970;10.082;2023-04-25T14:12:01;2.97;;;1.80;;
64188;SDS011;50493;50.970;10.082;2023-04-25T14:14:27;5.78;;;1.85;;
64188;SDS011;50493;50.970;10.082;2023-04-25T14:16:53;4.43;;;1.95;;
64188;SDS011;50493;50.970;10.082;2023-04-25T14:19:20;5.00;;;2.03;;
64188;SDS011;50493;50.970;10.082;2023-04-25T14:21:46;4.10;;;1.90;;
64188;SDS011;50493;50.970;10.082;2023-04-25T14:24:11;4.82;;;1.80;;
64188;SDS011;50493;50.970;10.082;2023-04-25T14:26:38;4.88;;;1.98;;
64188;SDS011;50493;50.970;10.082;2023-04-25T14:29:04;5.72;;;1.90;;
64188;SDS011;50493;50.970;10.082;2023-04-25T14:31:30;4.30;;;1.80;;
64188;SDS011;50493;50.970;10.082;2023-04-25T14:33:56;4.25;;;1.70;;
64188;SDS011;50493;50.970;10.082;2023-04-25T14:36:22;3.40;;;1.60;;